sensor_id;sensor_type;location;lat;lon;timestamp;temperature;humidity
32787;DHT22;19139;49.372;8.580;2023-03-23T00:01:24;20.90;81.50
32787;DHT22;19139;49.372;8.580;2023-03-23T00:03:53;20.90;81.50
32787;DHT22;19139;49.372;8.580;2023-03-23T00:06:20;20.90;81.50
32787;DHT22;19139;49.372;8.580;2023-03-23T00:08:50;20.90;81.50
32787;DHT22;19139;49.372;8.580;2023-03-23T00:11:23;20.80;81.50
32787;DHT22;19139;49.372;8.580;2023-03-23T00:13:52;20.90;81.50
32787;DHT22;19139;49.372;8.580;2023-03-23T00:16:22;20.90;81.50
32787;DHT22;19139;49.372;8.580;2023-03-23T00:19:18;20.80;81.40
32787;DHT22;19139;49.372;8.580;2023-03-23T00:21:45;20.90;81.50
32787;DHT22;19139;49.372;8.580;2023-03-23T00:24:16;20.90;81.50
32787;DHT22;19139;49.372;8.580;2023-03-23T00:26:46;20.90;81.60
32787;DHT22;19139;49.372;8.580;2023-03-23T00:29:17;20.90;81.50
32787;DHT22;19139;49.372;8.580;2023-03-23T00:31:45;20.80;81.50
32787;DHT22;19139;49.372;8.580;2023-03-23T00:34:17;20.90;81.50
32787;DHT22;19139;49.372;8.580;2023-03-23T00:36:47;20.80;81.50
32787;DHT22;19139;49.372;8.580;2023-03-23T00:39:13;20.90;81.50
32787;DHT22;19139;49.372;8.580;2023-03-23T00:41:42;20.80;81.50
32787;DHT22;19139;49.372;8.580;2023-03-23T00:44:08;20.80;81.50
32787;DHT22;19139;49.372;8.580;2023-03-23T00:46:34;20.90;81.50
32787;DHT22;19139;49.372;8.580;2023-03-23T00:48:59;20.90;81.50
32787;DHT22;19139;49.372;8.580;2023-03-23T00:51:25;20.80;81.50
32787;DHT22;19139;49.372;8.580;2023-03-23T00:53:51;20.90;81.60
32787;DHT22;19139;49.372;8.580;2023-03-23T00:56:17;20.90;81.60
32787;DHT22;19139;49.372;8.580;2023-03-23T00:58:42;20.80;81.50
32787;DHT22;19139;49.372;8.580;2023-03-23T01:01:08;20.80;81.50
32787;DHT22;19139;49.372;8.580;2023-03-23T01:03:35;20.90;81.60
32787;DHT22;19139;49.372;8.580;2023-03-23T01:06:07;20.80;81.50
32787;DHT22;19139;49.372;8.580;2023-03-23T01:08:34;20.80;81.60
32787;DHT22;19139;49.372;8.580;2023-03-23T01:11:06;20.80;81.60
32787;DHT22;19139;49.372;8.580;2023-03-23T01:13:31;20.80;81.50
32787;DHT22;19139;49.372;8.580;2023-03-23T01:15:57;20.80;81.50
32787;DHT22;19139;49.372;8.580;2023-03-23T01:18:23;20.80;81.50
32787;DHT22;19139;49.372;8.580;2023-03-23T01:20:48;20.80;81.50
32787;DHT22;19139;49.372;8.580;2023-03-23T01:23:14;20.80;81.50
32787;DHT22;19139;49.372;8.580;2023-03-23T01:25:39;20.80;81.50
32787;DHT22;19139;49.372;8.580;2023-03-23T01:28:05;20.80;81.50
32787;DHT22;19139;49.372;8.580;2023-03-23T01:30:31;20.90;81.70
32787;DHT22;19139;49.372;8.580;2023-03-23T01:32:56;20.80;81.60
32787;DHT22;19139;49.372;8.580;2023-03-23T01:35:22;20.80;81.60
32787;DHT22;19139;49.372;8.580;2023-03-23T01:37:48;20.80;81.60
32787;DHT22;19139;49.372;8.580;2023-03-23T01:40:14;20.80;82.40
32787;DHT22;19139;49.372;8.580;2023-03-23T01:42:40;20.80;81.70
32787;DHT22;19139;49.372;8.580;2023-03-23T01:45:24;20.80;81.60
32787;DHT22;19139;49.372;8.580;2023-03-23T01:47:58;20.90;81.70
32787;DHT22;19139;49.372;8.580;2023-03-23T01:50:26;20.80;81.70
32787;DHT22;19139;49.372;8.580;2023-03-23T01:52:54;20.80;81.70
32787;DHT22;19139;49.372;8.580;2023-03-23T01:55:22;20.80;81.70
32787;DHT22;19139;49.372;8.580;2023-03-23T01:57:49;20.80;81.70
32787;DHT22;19139;49.372;8.580;2023-03-23T02:00:15;20.80;81.70
32787;DHT22;19139;49.372;8.580;2023-03-23T02:02:43;20.80;81.70
32787;DHT22;19139;49.372;8.580;2023-03-23T02:05:34;20.80;81.70
32787;DHT22;19139;49.372;8.580;2023-03-23T02:08:02;20.80;81.70
32787;DHT22;19139;49.372;8.580;2023-03-23T02:10:30;20.80;81.70
32787;DHT22;19139;49.372;8.580;2023-03-23T02:12:57;20.80;81.70
32787;DHT22;19139;49.372;8.580;2023-03-23T02:15:26;20.80;81.70
32787;DHT22;19139;49.372;8.580;2023-03-23T02:18:26;20.80;81.70
32787;DHT22;19139;49.372;8.580;2023-03-23T02:21:17;20.80;81.70
32787;DHT22;19139;49.372;8.580;2023-03-23T02:27:20;20.80;81.70
32787;DHT22;19139;49.372;8.580;2023-03-23T02:35:24;20.80;81.80
32787;DHT22;19139;49.372;8.580;2023-03-23T02:37:58;20.80;81.80
32787;DHT22;19139;49.372;8.580;2023-03-23T02:40:30;20.80;81.70
32787;DHT22;19139;49.372;8.580;2023-03-23T02:42:57;20.80;81.70
32787;DHT22;19139;49.372;8.580;2023-03-23T02:45:27;20.80;81.80
32787;DHT22;19139;49.372;8.580;2023-03-23T02:47:55;20.80;81.80
32787;DHT22;19139;49.372;8.580;2023-03-23T02:50:24;20.80;81.90
32787;DHT22;19139;49.372;8.580;2023-03-23T02:52:53;20.80;81.80
32787;DHT22;19139;49.372;8.580;2023-03-23T02:55:21;20.80;81.80
32787;DHT22;19139;49.372;8.580;2023-03-23T02:57:51;20.80;81.80
32787;DHT22;19139;49.372;8.580;2023-03-23T03:00:17;20.80;81.80
32787;DHT22;19139;49.372;8.580;2023-03-23T03:02:54;20.80;81.80
32787;DHT22;19139;49.372;8.580;2023-03-23T03:08:23;20.80;81.80
32787;DHT22;19139;49.372;8.580;2023-03-23T03:11:06;20.80;81.90
32787;DHT22;19139;49.372;8.580;2023-03-23T03:16:38;20.80;81.90
32787;DHT22;19139;49.372;8.580;2023-03-23T03:19:16;20.80;81.80
32787;DHT22;19139;49.372;8.580;2023-03-23T03:21:45;20.80;81.90
32787;DHT22;19139;49.372;8.580;2023-03-23T03:24:14;20.80;81.90
32787;DHT22;19139;49.372;8.580;2023-03-23T03:26:45;20.80;81.90
32787;DHT22;19139;49.372;8.580;2023-03-23T03:29:14;20.80;81.80
32787;DHT22;19139;49.372;8.580;2023-03-23T03:31:44;20.80;81.90
32787;DHT22;19139;49.372;8.580;2023-03-23T03:34:11;20.80;81.80
32787;DHT22;19139;49.372;8.580;2023-03-23T03:36:40;20.80;81.90
32787;DHT22;19139;49.372;8.580;2023-03-23T03:39:08;20.80;81.90
32787;DHT22;19139;49.372;8.580;2023-03-23T03:41:36;20.80;81.90
32787;DHT22;19139;49.372;8.580;2023-03-23T03:44:03;20.80;81.90
32787;DHT22;19139;49.372;8.580;2023-03-23T03:46:29;20.80;81.90
32787;DHT22;19139;49.372;8.580;2023-03-23T03:48:57;20.80;81.90
32787;DHT22;19139;49.372;8.580;2023-03-23T03:51:23;20.80;81.90
32787;DHT22;19139;49.372;8.580;2023-03-23T03:53:49;20.80;81.90
32787;DHT22;19139;49.372;8.580;2023-03-23T03:56:15;20.80;81.90
32787;DHT22;19139;49.372;8.580;2023-03-23T03:58:41;20.80;81.90
32787;DHT22;19139;49.372;8.580;2023-03-23T04:01:09;20.80;81.80
32787;DHT22;19139;49.372;8.580;2023-03-23T04:03:39;20.80;81.90
32787;DHT22;19139;49.372;8.580;2023-03-23T04:06:05;20.80;81.80
32787;DHT22;19139;49.372;8.580;2023-03-23T04:08:31;20.80;81.90
32787;DHT22;19139;49.372;8.580;2023-03-23T04:10:57;20.80;81.80
32787;DHT22;19139;49.372;8.580;2023-03-23T04:13:23;20.80;81.80
32787;DHT22;19139;49.372;8.580;2023-03-23T04:15:49;20.80;81.80
32787;DHT22;19139;49.372;8.580;2023-03-23T04:18:16;20.80;81.80
32787;DHT22;19139;49.372;8.580;2023-03-23T04:20:44;20.80;81.80
32787;DHT22;19139;49.372;8.580;2023-03-23T04:23:15;20.80;81.80
32787;DHT22;19139;49.372;8.580;2023-03-23T04:25:49;20.80;81.80
32787;DHT22;19139;49.372;8.580;2023-03-23T04:28:19;20.80;81.80
32787;DHT22;19139;49.372;8.580;2023-03-23T04:30:49;20.80;81.80
32787;DHT22;19139;49.372;8.580;2023-03-23T04:33:19;20.80;81.80
32787;DHT22;19139;49.372;8.580;2023-03-23T04:35:45;20.80;81.80
32787;DHT22;19139;49.372;8.580;2023-03-23T04:38:15;20.80;81.80
32787;DHT22;19139;49.372;8.580;2023-03-23T04:40:42;20.80;81.80
32787;DHT22;19139;49.372;8.580;2023-03-23T04:43:09;20.80;81.80
32787;DHT22;19139;49.372;8.580;2023-03-23T04:45:38;20.70;81.70
32787;DHT22;19139;49.372;8.580;2023-03-23T04:48:07;20.80;81.70
32787;DHT22;19139;49.372;8.580;2023-03-23T04:50:34;20.80;81.80
32787;DHT22;19139;49.372;8.580;2023-03-23T04:53:01;20.80;81.80
32787;DHT22;19139;49.372;8.580;2023-03-23T04:55:32;20.80;81.80
32787;DHT22;19139;49.372;8.580;2023-03-23T04:58:05;20.70;81.70
32787;DHT22;19139;49.372;8.580;2023-03-23T05:00:32;20.70;81.70
32787;DHT22;19139;49.372;8.580;2023-03-23T05:02:59;20.80;81.80
32787;DHT22;19139;49.372;8.580;2023-03-23T05:05:27;20.80;81.80
32787;DHT22;19139;49.372;8.580;2023-03-23T05:07:54;20.80;81.80
32787;DHT22;19139;49.372;8.580;2023-03-23T05:10:20;20.70;81.50
32787;DHT22;19139;49.372;8.580;2023-03-23T05:12:46;20.80;81.70
32787;DHT22;19139;49.372;8.580;2023-03-23T05:15:13;20.70;81.70
32787;DHT22;19139;49.372;8.580;2023-03-23T05:17:39;20.80;81.70
32787;DHT22;19139;49.372;8.580;2023-03-23T05:20:16;20.80;81.80
32787;DHT22;19139;49.372;8.580;2023-03-23T05:22:45;20.70;81.70
32787;DHT22;19139;49.372;8.580;2023-03-23T05:25:15;20.70;81.70
32787;DHT22;19139;49.372;8.580;2023-03-23T05:27:44;20.70;81.70
32787;DHT22;19139;49.372;8.580;2023-03-23T05:30:14;20.80;81.70
32787;DHT22;19139;49.372;8.580;2023-03-23T05:32:42;20.70;81.70
32787;DHT22;19139;49.372;8.580;2023-03-23T05:35:08;20.70;81.70
32787;DHT22;19139;49.372;8.580;2023-03-23T05:37:34;20.70;81.70
32787;DHT22;19139;49.372;8.580;2023-03-23T05:39:59;20.70;81.70
32787;DHT22;19139;49.372;8.580;2023-03-23T05:42:31;20.70;81.70
32787;DHT22;19139;49.372;8.580;2023-03-23T05:44:56;20.70;81.70
32787;DHT22;19139;49.372;8.580;2023-03-23T05:47:24;20.70;81.70
32787;DHT22;19139;49.372;8.580;2023-03-23T05:49:50;20.70;81.70
32787;DHT22;19139;49.372;8.580;2023-03-23T05:52:17;20.70;81.70
32787;DHT22;19139;49.372;8.580;2023-03-23T05:54:43;20.70;81.70
32787;DHT22;19139;49.372;8.580;2023-03-23T05:57:10;20.70;81.70
32787;DHT22;19139;49.372;8.580;2023-03-23T05:59:36;20.80;81.80
32787;DHT22;19139;49.372;8.580;2023-03-23T06:02:02;20.70;81.70
32787;DHT22;19139;49.372;8.580;2023-03-23T06:04:28;20.70;81.80
32787;DHT22;19139;49.372;8.580;2023-03-23T06:06:53;20.70;81.70
32787;DHT22;19139;49.372;8.580;2023-03-23T06:09:19;20.80;81.80
32787;DHT22;19139;49.372;8.580;2023-03-23T06:11:45;20.70;81.80
32787;DHT22;19139;49.372;8.580;2023-03-23T06:14:11;20.70;81.90
32787;DHT22;19139;49.372;8.580;2023-03-23T06:16:37;20.80;82.10
32787;DHT22;19139;49.372;8.580;2023-03-23T06:19:03;20.80;82.10
32787;DHT22;19139;49.372;8.580;2023-03-23T06:21:30;20.80;82.20
32787;DHT22;19139;49.372;8.580;2023-03-23T06:23:56;20.80;82.10
32787;DHT22;19139;49.372;8.580;2023-03-23T06:26:25;20.70;82.10
32787;DHT22;19139;49.372;8.580;2023-03-23T06:28:52;20.70;82.10
32787;DHT22;19139;49.372;8.580;2023-03-23T06:31:18;20.70;82.10
32787;DHT22;19139;49.372;8.580;2023-03-23T06:33:45;20.70;82.00
32787;DHT22;19139;49.372;8.580;2023-03-23T06:36:12;20.70;82.00
32787;DHT22;19139;49.372;8.580;2023-03-23T06:38:38;20.70;81.90
32787;DHT22;19139;49.372;8.580;2023-03-23T06:41:04;20.70;81.90
32787;DHT22;19139;49.372;8.580;2023-03-23T06:43:30;20.70;81.90
32787;DHT22;19139;49.372;8.580;2023-03-23T06:45:58;20.70;81.90
32787;DHT22;19139;49.372;8.580;2023-03-23T06:48:24;20.70;81.90
32787;DHT22;19139;49.372;8.580;2023-03-23T06:50:50;20.70;81.90
32787;DHT22;19139;49.372;8.580;2023-03-23T06:53:15;20.70;81.80
32787;DHT22;19139;49.372;8.580;2023-03-23T06:55:43;20.70;81.90
32787;DHT22;19139;49.372;8.580;2023-03-23T06:58:09;20.70;81.90
32787;DHT22;19139;49.372;8.580;2023-03-23T07:00:36;20.70;81.80
32787;DHT22;19139;49.372;8.580;2023-03-23T07:03:01;20.70;81.80
32787;DHT22;19139;49.372;8.580;2023-03-23T07:05:27;20.70;81.90
32787;DHT22;19139;49.372;8.580;2023-03-23T07:07:53;20.70;81.80
32787;DHT22;19139;49.372;8.580;2023-03-23T07:10:19;20.70;81.70
32787;DHT22;19139;49.372;8.580;2023-03-23T07:12:45;20.70;81.70
32787;DHT22;19139;49.372;8.580;2023-03-23T07:15:11;20.70;81.80
32787;DHT22;19139;49.372;8.580;2023-03-23T07:17:38;20.70;81.70
32787;DHT22;19139;49.372;8.580;2023-03-23T07:20:05;20.70;81.70
32787;DHT22;19139;49.372;8.580;2023-03-23T07:22:31;20.70;81.80
32787;DHT22;19139;49.372;8.580;2023-03-23T07:24:57;20.70;81.70
32787;DHT22;19139;49.372;8.580;2023-03-23T07:27:22;20.70;81.70
32787;DHT22;19139;49.372;8.580;2023-03-23T07:29:49;20.70;81.70
32787;DHT22;19139;49.372;8.580;2023-03-23T07:32:15;20.60;81.70
32787;DHT22;19139;49.372;8.580;2023-03-23T07:34:41;20.70;81.70
32787;DHT22;19139;49.372;8.580;2023-03-23T07:37:07;20.70;81.70
32787;DHT22;19139;49.372;8.580;2023-03-23T07:39:32;20.70;81.70
32787;DHT22;19139;49.372;8.580;2023-03-23T07:41:58;20.70;82.50
32787;DHT22;19139;49.372;8.580;2023-03-23T07:44:24;20.70;81.70
32787;DHT22;19139;49.372;8.580;2023-03-23T07:46:50;20.70;81.70
32787;DHT22;19139;49.372;8.580;2023-03-23T07:49:17;20.70;81.60
32787;DHT22;19139;49.372;8.580;2023-03-23T07:51:43;20.70;81.20
32787;DHT22;19139;49.372;8.580;2023-03-23T07:54:09;20.70;81.50
32787;DHT22;19139;49.372;8.580;2023-03-23T07:56:35;20.60;81.60
32787;DHT22;19139;49.372;8.580;2023-03-23T07:59:02;20.70;81.70
32787;DHT22;19139;49.372;8.580;2023-03-23T08:01:28;20.60;81.70
32787;DHT22;19139;49.372;8.580;2023-03-23T08:03:54;20.60;81.70
32787;DHT22;19139;49.372;8.580;2023-03-23T08:06:23;20.60;81.70
32787;DHT22;19139;49.372;8.580;2023-03-23T08:08:49;20.60;81.70
32787;DHT22;19139;49.372;8.580;2023-03-23T08:11:17;20.70;81.70
32787;DHT22;19139;49.372;8.580;2023-03-23T08:13:44;20.60;81.70
32787;DHT22;19139;49.372;8.580;2023-03-23T08:16:10;20.70;81.70
32787;DHT22;19139;49.372;8.580;2023-03-23T08:18:36;20.70;81.70
32787;DHT22;19139;49.372;8.580;2023-03-23T08:21:07;20.60;81.70
32787;DHT22;19139;49.372;8.580;2023-03-23T08:23:36;20.70;81.70
32787;DHT22;19139;49.372;8.580;2023-03-23T08:26:04;20.70;81.70
32787;DHT22;19139;49.372;8.580;2023-03-23T08:28:32;20.70;81.70
32787;DHT22;19139;49.372;8.580;2023-03-23T08:30:57;20.70;81.70
32787;DHT22;19139;49.372;8.580;2023-03-23T08:33:23;20.60;81.60
32787;DHT22;19139;49.372;8.580;2023-03-23T08:35:56;20.70;81.70
32787;DHT22;19139;49.372;8.580;2023-03-23T08:38:23;20.70;81.70
32787;DHT22;19139;49.372;8.580;2023-03-23T08:40:49;20.70;81.70
32787;DHT22;19139;49.372;8.580;2023-03-23T08:43:16;20.70;81.70
32787;DHT22;19139;49.372;8.580;2023-03-23T08:45:42;20.70;81.70
32787;DHT22;19139;49.372;8.580;2023-03-23T08:48:08;20.70;81.70
32787;DHT22;19139;49.372;8.580;2023-03-23T08:50:34;20.70;81.70
32787;DHT22;19139;49.372;8.580;2023-03-23T08:53:01;20.70;81.80
32787;DHT22;19139;49.372;8.580;2023-03-23T08:55:27;20.70;81.70
32787;DHT22;19139;49.372;8.580;2023-03-23T08:57:53;20.70;81.70
32787;DHT22;19139;49.372;8.580;2023-03-23T09:00:21;20.70;81.70
32787;DHT22;19139;49.372;8.580;2023-03-23T09:02:51;20.70;81.80
32787;DHT22;19139;49.372;8.580;2023-03-23T09:05:20;20.70;81.70
32787;DHT22;19139;49.372;8.580;2023-03-23T09:07:48;20.70;81.70
32787;DHT22;19139;49.372;8.580;2023-03-23T09:10:15;20.70;81.70
32787;DHT22;19139;49.372;8.580;2023-03-23T09:12:41;20.70;81.70
32787;DHT22;19139;49.372;8.580;2023-03-23T09:15:09;20.70;81.70
32787;DHT22;19139;49.372;8.580;2023-03-23T09:17:40;20.70;81.70
32787;DHT22;19139;49.372;8.580;2023-03-23T09:20:07;20.60;81.70
32787;DHT22;19139;49.372;8.580;2023-03-23T09:22:42;20.70;81.70
32787;DHT22;19139;49.372;8.580;2023-03-23T09:25:10;20.70;81.70
32787;DHT22;19139;49.372;8.580;2023-03-23T09:27:37;20.70;81.70
32787;DHT22;19139;49.372;8.580;2023-03-23T09:30:10;20.70;81.70
32787;DHT22;19139;49.372;8.580;2023-03-23T09:32:37;20.70;81.70
32787;DHT22;19139;49.372;8.580;2023-03-23T09:35:05;20.70;82.50
32787;DHT22;19139;49.372;8.580;2023-03-23T09:37:38;20.70;81.70
32787;DHT22;19139;49.372;8.580;2023-03-23T09:40:06;20.70;81.70
32787;DHT22;19139;49.372;8.580;2023-03-23T09:48:38;20.70;81.80
32787;DHT22;19139;49.372;8.580;2023-03-23T09:51:17;20.60;81.70
32787;DHT22;19139;49.372;8.580;2023-03-23T09:53:51;20.70;81.80
32787;DHT22;19139;49.372;8.580;2023-03-23T09:56:20;20.70;81.80
32787;DHT22;19139;49.372;8.580;2023-03-23T10:01:36;20.70;81.80
32787;DHT22;19139;49.372;8.580;2023-03-23T10:06:51;20.70;81.90
32787;DHT22;19139;49.372;8.580;2023-03-23T10:09:19;20.70;81.80
32787;DHT22;19139;49.372;8.580;2023-03-23T10:14:45;20.70;81.80
32787;DHT22;19139;49.372;8.580;2023-03-23T10:17:19;20.70;81.80
32787;DHT22;19139;49.372;8.580;2023-03-23T10:22:40;20.70;81.80
32787;DHT22;19139;49.372;8.580;2023-03-23T10:27:52;20.70;81.70
32787;DHT22;19139;49.372;8.580;2023-03-23T10:30:33;20.70;82.60
32787;DHT22;19139;49.372;8.580;2023-03-23T10:35:57;20.80;81.80
32787;DHT22;19139;49.372;8.580;2023-03-23T10:38:39;20.70;81.70
32787;DHT22;19139;49.372;8.580;2023-03-23T10:41:17;20.70;81.80
32787;DHT22;19139;49.372;8.580;2023-03-23T10:43:44;20.70;81.80
32787;DHT22;19139;49.372;8.580;2023-03-23T10:48:49;20.70;81.80
32787;DHT22;19139;49.372;8.580;2023-03-23T10:51:18;20.70;81.90
32787;DHT22;19139;49.372;8.580;2023-03-23T10:53:50;20.70;81.90
32787;DHT22;19139;49.372;8.580;2023-03-23T10:56:25;20.70;81.80
32787;DHT22;19139;49.372;8.580;2023-03-23T10:58:51;20.70;81.80
32787;DHT22;19139;49.372;8.580;2023-03-23T11:01:32;20.80;81.90
32787;DHT22;19139;49.372;8.580;2023-03-23T11:04:00;20.80;81.90
32787;DHT22;19139;49.372;8.580;2023-03-23T11:06:31;20.70;81.90
32787;DHT22;19139;49.372;8.580;2023-03-23T11:09:03;20.70;81.90
32787;DHT22;19139;49.372;8.580;2023-03-23T11:11:42;20.70;82.00
32787;DHT22;19139;49.372;8.580;2023-03-23T11:14:26;20.70;82.00
32787;DHT22;19139;49.372;8.580;2023-03-23T11:16:57;20.70;82.10
32787;DHT22;19139;49.372;8.580;2023-03-23T11:19:33;20.70;82.10
32787;DHT22;19139;49.372;8.580;2023-03-23T11:24:34;20.70;82.10
32787;DHT22;19139;49.372;8.580;2023-03-23T11:27:00;20.70;82.10
32787;DHT22;19139;49.372;8.580;2023-03-23T11:29:29;20.70;82.10
32787;DHT22;19139;49.372;8.580;2023-03-23T11:34:31;20.70;82.10
32787;DHT22;19139;49.372;8.580;2023-03-23T11:37:03;20.70;82.10
32787;DHT22;19139;49.372;8.580;2023-03-23T11:39:34;20.80;82.20
32787;DHT22;19139;49.372;8.580;2023-03-23T11:42:11;20.70;82.10
32787;DHT22;19139;49.372;8.580;2023-03-23T11:44:42;20.80;82.20
32787;DHT22;19139;49.372;8.580;2023-03-23T11:50:04;20.70;82.30
32787;DHT22;19139;49.372;8.580;2023-03-23T11:57:43;20.70;82.30
32787;DHT22;19139;49.372;8.580;2023-03-23T12:00:17;20.70;82.30
32787;DHT22;19139;49.372;8.580;2023-03-23T12:06:03;20.70;82.30
32787;DHT22;19139;49.372;8.580;2023-03-23T12:27:34;20.80;82.50
32787;DHT22;19139;49.372;8.580;2023-03-23T12:30:04;20.70;83.10
32787;DHT22;19139;49.372;8.580;2023-03-23T12:32:58;20.70;82.30
32787;DHT22;19139;49.372;8.580;2023-03-23T12:43:36;20.70;82.30
32787;DHT22;19139;49.372;8.580;2023-03-23T12:46:35;20.80;82.40
32787;DHT22;19139;49.372;8.580;2023-03-23T12:57:18;20.80;82.50
32787;DHT22;19139;49.372;8.580;2023-03-23T13:03:00;20.70;82.30
32787;DHT22;19139;49.372;8.580;2023-03-23T13:05:31;20.70;82.30
32787;DHT22;19139;49.372;8.580;2023-03-23T13:08:06;20.70;82.30
32787;DHT22;19139;49.372;8.580;2023-03-23T13:10:45;20.80;82.30
32787;DHT22;19139;49.372;8.580;2023-03-23T13:13:17;20.80;82.30
32787;DHT22;19139;49.372;8.580;2023-03-23T13:15:48;20.80;82.40
32787;DHT22;19139;49.372;8.580;2023-03-23T13:18:29;20.80;82.30
32787;DHT22;19139;49.372;8.580;2023-03-23T13:23:53;20.70;82.30
32787;DHT22;19139;49.372;8.580;2023-03-23T13:26:22;20.80;83.10
32787;DHT22;19139;49.372;8.580;2023-03-23T13:31:34;20.70;83.00
32787;DHT22;19139;49.372;8.580;2023-03-23T13:34:10;20.80;82.40
32787;DHT22;19139;49.372;8.580;2023-03-23T13:37:01;20.70;82.30
32787;DHT22;19139;49.372;8.580;2023-03-23T13:44:56;20.70;82.30
32787;DHT22;19139;49.372;8.580;2023-03-23T13:47:28;20.70;82.30
32787;DHT22;19139;49.372;8.580;2023-03-23T13:52:52;20.70;82.30
32787;DHT22;19139;49.372;8.580;2023-03-23T13:58:10;20.70;82.30
32787;DHT22;19139;49.372;8.580;2023-03-23T14:00:50;20.70;82.40
32787;DHT22;19139;49.372;8.580;2023-03-23T14:03:36;20.70;82.30
32787;DHT22;19139;49.372;8.580;2023-03-23T14:06:05;20.70;82.50
32787;DHT22;19139;49.372;8.580;2023-03-23T14:11:09;20.60;82.80
32787;DHT22;19139;49.372;8.580;2023-03-23T14:14:04;20.60;83.20
32787;DHT22;19139;49.372;8.580;2023-03-23T14:18:59;20.60;83.40
32787;DHT22;19139;49.372;8.580;2023-03-23T14:24:10;20.60;83.70
32787;DHT22;19139;49.372;8.580;2023-03-23T14:26:36;20.60;84.00
32787;DHT22;19139;49.372;8.580;2023-03-23T14:29:03;20.60;84.00
32787;DHT22;19139;49.372;8.580;2023-03-23T14:31:29;20.60;84.00
32787;DHT22;19139;49.372;8.580;2023-03-23T14:33:56;20.60;84.80
32787;DHT22;19139;49.372;8.580;2023-03-23T14:36:24;20.60;84.20
32787;DHT22;19139;49.372;8.580;2023-03-23T14:41:36;20.60;84.40
32787;DHT22;19139;49.372;8.580;2023-03-23T14:44:03;20.70;84.60
32787;DHT22;19139;49.372;8.580;2023-03-23T14:46:31;20.60;84.60
32787;DHT22;19139;49.372;8.580;2023-03-23T14:49:00;20.60;84.60
32787;DHT22;19139;49.372;8.580;2023-03-23T14:51:26;20.60;84.80
32787;DHT22;19139;49.372;8.580;2023-03-23T14:53:53;20.60;84.80
32787;DHT22;19139;49.372;8.580;2023-03-23T14:56:20;20.60;84.80
32787;DHT22;19139;49.372;8.580;2023-03-23T14:58:52;20.60;85.00
32787;DHT22;19139;49.372;8.580;2023-03-23T15:01:26;20.60;85.10
32787;DHT22;19139;49.372;8.580;2023-03-23T15:03:56;20.60;85.30
32787;DHT22;19139;49.372;8.580;2023-03-23T15:06:27;20.60;85.20
32787;DHT22;19139;49.372;8.580;2023-03-23T15:08:56;20.60;85.30
32787;DHT22;19139;49.372;8.580;2023-03-23T15:11:27;20.60;85.60
32787;DHT22;19139;49.372;8.580;2023-03-23T15:13:57;20.60;85.60
32787;DHT22;19139;49.372;8.580;2023-03-23T15:16:36;20.60;85.50
32787;DHT22;19139;49.372;8.580;2023-03-23T15:19:10;20.60;85.60
32787;DHT22;19139;49.372;8.580;2023-03-23T15:21:57;20.60;85.50
32787;DHT22;19139;49.372;8.580;2023-03-23T15:24:36;20.60;85.50
32787;DHT22;19139;49.372;8.580;2023-03-23T15:27:13;20.70;85.70
32787;DHT22;19139;49.372;8.580;2023-03-23T15:29:54;20.60;85.50
32787;DHT22;19139;49.372;8.580;2023-03-23T15:32:25;20.60;85.50
32787;DHT22;19139;49.372;8.580;2023-03-23T15:34:51;20.60;85.60
32787;DHT22;19139;49.372;8.580;2023-03-23T15:37:31;20.60;85.60
32787;DHT22;19139;49.372;8.580;2023-03-23T15:39:58;20.60;85.90
32787;DHT22;19139;49.372;8.580;2023-03-23T15:42:29;20.60;85.70
32787;DHT22;19139;49.372;8.580;2023-03-23T15:50:13;20.60;86.10
32787;DHT22;19139;49.372;8.580;2023-03-23T15:52:40;20.60;86.10
32787;DHT22;19139;49.372;8.580;2023-03-23T15:57:54;20.70;86.50
32787;DHT22;19139;49.372;8.580;2023-03-23T16:00:23;20.70;86.70
32787;DHT22;19139;49.372;8.580;2023-03-23T16:02:55;20.70;86.70
32787;DHT22;19139;49.372;8.580;2023-03-23T16:05:23;20.70;86.70
32787;DHT22;19139;49.372;8.580;2023-03-23T16:07:50;20.70;86.70
32787;DHT22;19139;49.372;8.580;2023-03-23T16:10:19;20.80;86.80
32787;DHT22;19139;49.372;8.580;2023-03-23T16:12:47;20.80;86.70
32787;DHT22;19139;49.372;8.580;2023-03-23T16:15:14;20.80;86.50
32787;DHT22;19139;49.372;8.580;2023-03-23T16:17:42;20.70;86.40
32787;DHT22;19139;49.372;8.580;2023-03-23T16:20:13;20.80;86.30
32787;DHT22;19139;49.372;8.580;2023-03-23T16:22:40;20.80;86.30
32787;DHT22;19139;49.372;8.580;2023-03-23T16:25:08;20.80;86.10
32787;DHT22;19139;49.372;8.580;2023-03-23T16:27:35;20.80;86.10
32787;DHT22;19139;49.372;8.580;2023-03-23T16:30:12;20.80;85.90
32787;DHT22;19139;49.372;8.580;2023-03-23T16:32:39;20.70;85.90
32787;DHT22;19139;49.372;8.580;2023-03-23T16:35:05;20.80;85.90
32787;DHT22;19139;49.372;8.580;2023-03-23T16:37:32;20.80;85.80
32787;DHT22;19139;49.372;8.580;2023-03-23T16:40:00;20.80;85.80
32787;DHT22;19139;49.372;8.580;2023-03-23T16:42:27;20.70;85.70
32787;DHT22;19139;49.372;8.580;2023-03-23T16:44:54;20.80;85.70
32787;DHT22;19139;49.372;8.580;2023-03-23T16:47:21;20.80;85.60
32787;DHT22;19139;49.372;8.580;2023-03-23T16:49:51;20.70;85.40
32787;DHT22;19139;49.372;8.580;2023-03-23T16:52:19;20.80;86.30
32787;DHT22;19139;49.372;8.580;2023-03-23T16:54:46;20.80;85.50
32787;DHT22;19139;49.372;8.580;2023-03-23T16:57:13;20.70;85.30
32787;DHT22;19139;49.372;8.580;2023-03-23T16:59:42;20.80;86.10
32787;DHT22;19139;49.372;8.580;2023-03-23T17:02:14;20.70;85.30
32787;DHT22;19139;49.372;8.580;2023-03-23T17:04:47;20.80;85.30
32787;DHT22;19139;49.372;8.580;2023-03-23T17:07:26;20.80;86.10
32787;DHT22;19139;49.372;8.580;2023-03-23T17:10:06;20.80;85.10
32787;DHT22;19139;49.372;8.580;2023-03-23T17:13:18;20.70;85.10
32787;DHT22;19139;49.372;8.580;2023-03-23T17:16:06;20.80;85.10
32787;DHT22;19139;49.372;8.580;2023-03-23T17:19:10;20.80;85.20
32787;DHT22;19139;49.372;8.580;2023-03-23T17:22:18;20.70;85.00
32787;DHT22;19139;49.372;8.580;2023-03-23T17:25:27;20.80;85.00
32787;DHT22;19139;49.372;8.580;2023-03-23T17:27:58;20.70;84.90
32787;DHT22;19139;49.372;8.580;2023-03-23T17:30:42;20.80;85.00
32787;DHT22;19139;49.372;8.580;2023-03-23T17:33:11;20.70;84.90
32787;DHT22;19139;49.372;8.580;2023-03-23T17:35:38;20.70;84.90
32787;DHT22;19139;49.372;8.580;2023-03-23T17:38:05;20.70;84.80
32787;DHT22;19139;49.372;8.580;2023-03-23T17:40:32;20.80;84.90
32787;DHT22;19139;49.372;8.580;2023-03-23T17:42:58;20.80;85.00
32787;DHT22;19139;49.372;8.580;2023-03-23T17:45:25;20.80;84.90
32787;DHT22;19139;49.372;8.580;2023-03-23T17:47:52;20.80;84.80
32787;DHT22;19139;49.372;8.580;2023-03-23T17:50:19;20.80;84.80
32787;DHT22;19139;49.372;8.580;2023-03-23T17:52:45;20.70;84.80
32787;DHT22;19139;49.372;8.580;2023-03-23T17:55:12;20.70;84.80
32787;DHT22;19139;49.372;8.580;2023-03-23T17:57:39;20.80;84.80